Time;durP1;ratioP1;P1;durP2;ratioP2;P2;SDS_P1;SDS_P2;PMS_P1;PMS_P2;Temp;Humidity;BMP_temperature;BMP_pressure;BME280_temperature;BME280_humidity;BME280_pressure;Samples;Min_cycle;Max_cycle;Signal;HPM_P1;HPM_P2
2022/07/21 00:01:05;;;;;;;5.80;5.20;;;;;;;18.35;63.30;100601.58;130245;1267;108699;-70
2022/07/21 00:04:10;;;;;;;7.00;5.50;;;;;;;18.31;63.41;100600.13;130190;1267;108758;-71
2022/07/21 00:07:16;;;;;;;7.90;5.70;;;;;;;18.20;63.40;100597.83;130289;1267;108613;-74
2022/07/21 00:10:22;;;;;;;8.10;5.80;;;;;;;18.12;63.76;100591.61;130309;1267;108718;-74
2022/07/21 00:13:28;;;;;;;6.70;5.90;;;;;;;18.09;63.88;100588.02;130309;1267;108836;-73
2022/07/21 00:16:34;;;;;;;6.90;5.70;;;;;;;18.03;64.00;100585.84;130296;1267;109105;-72
2022/07/21 00:19:39;;;;;;;5.20;4.70;;;;;;;17.96;63.98;100588.77;130255;1267;108668;-72
2022/07/21 00:22:45;;;;;;;7.10;5.40;;;;;;;17.89;64.09;100590.30;130236;1267;108956;-75
2022/07/21 00:25:51;;;;;;;7.50;5.90;;;;;;;17.87;64.33;100591.02;130253;1267;108175;-73
2022/07/21 00:28:56;;;;;;;6.70;5.50;;;;;;;17.87;64.31;100592.98;130265;1267;107778;-72
2022/07/21 00:32:03;;;;;;;6.40;5.30;;;;;;;17.85;64.33;100597.14;130307;1267;107356;-74
2022/07/21 00:35:11;;;;;;;8.10;5.60;;;;;;;17.77;64.13;100603.45;130339;1267;108767;-74
2022/07/21 00:38:17;;;;;;;6.60;5.40;;;;;;;17.70;64.39;100602.46;130315;1267;109825;-74
2022/07/21 00:41:22;;;;;;;6.30;5.70;;;;;;;17.66;64.54;100603.80;130260;1267;109136;-74
2022/07/21 00:44:28;;;;;;;5.90;5.10;;;;;;;17.60;64.72;100597.19;130225;1267;108871;-72
2022/07/21 00:47:34;;;;;;;6.10;5.20;;;;;;;17.52;64.85;100597.29;130231;1267;108926;-73
2022/07/21 00:50:40;;;;;;;5.70;4.90;;;;;;;17.43;64.92;100596.20;130285;1267;108714;-74
2022/07/21 00:53:45;;;;;;;7.80;5.50;;;;;;;17.35;65.04;100604.73;130278;1267;108774;-73
2022/07/21 00:56:51;;;;;;;6.80;5.50;;;;;;;17.32;65.09;100609.27;130277;1267;107770;-73
2022/07/21 00:59:57;;;;;;;6.60;5.10;;;;;;;17.35;65.06;100610.67;130230;1267;108755;-72
2022/07/21 01:03:03;;;;;;;8.10;5.70;;;;;;;17.32;65.14;100612.88;130221;1267;108728;-72
2022/07/21 01:06:09;;;;;;;6.40;5.70;;;;;;;17.26;65.15;100612.98;130246;1267;108564;-72
2022/07/21 01:09:14;;;;;;;7.50;5.70;;;;;;;17.20;65.43;100607.49;130216;1267;108843;-70
2022/07/21 01:12:20;;;;;;;5.80;5.10;;;;;;;17.17;65.50;100611.86;130073;1267;108935;-70
2022/07/21 01:15:25;;;;;;;6.30;5.00;;;;;;;17.04;65.46;100619.45;130085;1267;107485;-71
2022/07/21 01:18:31;;;;;;;6.30;5.10;;;;;;;17.03;65.74;100621.79;130110;1267;108747;-70
2022/07/21 01:21:39;;;;;;;8.20;5.60;;;;;;;17.05;65.65;100620.48;130165;1267;107580;-70
2022/07/21 01:24:45;;;;;;;6.10;5.20;;;;;;;17.03;65.84;100615.79;130187;1267;108929;-70
2022/07/21 01:27:50;;;;;;;6.20;5.50;;;;;;;17.02;65.81;100611.48;130203;1267;109748;-70
2022/07/21 01:30:56;;;;;;;6.70;5.60;;;;;;;16.96;65.91;100615.98;130162;1267;110485;-71
2022/07/21 01:34:01;;;;;;;6.10;5.50;;;;;;;16.95;65.98;100614.89;130195;1267;108380;-70
2022/07/21 01:37:07;;;;;;;6.00;5.40;;;;;;;16.85;65.76;100614.27;130168;1267;109297;-70
2022/07/21 01:43:37;;;;;;;6.10;5.10;;;;;;;16.65;66.34;100610.85;130090;1267;108210;-70
2022/07/21 01:46:44;;;;;;;7.70;5.00;;;;;;;16.60;66.23;100616.89;130088;1267;108795;-71
2022/07/21 01:49:50;;;;;;;7.20;5.10;;;;;;;16.56;66.41;100619.12;130226;1267;108947;-71
2022/07/21 01:52:57;;;;;;;5.70;5.10;;;;;;;16.57;66.46;100618.77;130260;1267;108561;-70
2022/07/21 01:56:02;;;;;;;6.40;5.10;;;;;;;16.61;66.44;100621.02;130273;1267;108788;-71
2022/07/21 01:59:08;;;;;;;7.00;5.40;;;;;;;16.61;66.52;100622.10;130303;1267;108491;-70
2022/07/21 02:02:14;;;;;;;5.90;5.20;;;;;;;16.57;66.62;100620.26;130317;1267;108759;-71
2022/07/21 02:05:20;;;;;;;7.10;5.20;;;;;;;16.52;66.70;100624.11;130238;1267;108595;-71
2022/07/21 02:08:25;;;;;;;5.30;4.80;;;;;;;16.45;66.83;100630.23;130088;1267;108710;-71
2022/07/21 02:11:31;;;;;;;7.10;5.10;;;;;;;16.38;66.82;100633.27;130172;1267;108820;-71
2022/07/21 02:14:36;;;;;;;6.60;5.50;;;;;;;16.35;67.01;100636.81;130273;1267;108859;-71
2022/07/21 02:17:41;;;;;;;7.70;5.70;;;;;;;16.36;66.85;100633.02;130114;1267;108984;-68
2022/07/21 02:20:48;;;;;;;7.10;5.60;;;;;;;16.31;66.89;100627.30;130142;1267;108839;-69
2022/07/21 02:23:54;;;;;;;6.90;5.10;;;;;;;16.31;67.22;100620.16;130171;1267;108236;-70
2022/07/21 02:26:59;;;;;;;6.60;5.20;;;;;;;16.26;67.00;100611.02;130189;1267;109410;-70
2022/07/21 02:30:06;;;;;;;6.50;5.10;;;;;;;16.20;67.36;100602.42;130059;1267;108812;-70
2022/07/21 02:33:12;;;;;;;5.40;4.70;;;;;;;16.16;67.40;100598.16;130066;1267;108730;-70
2022/07/21 02:36:18;;;;;;;5.40;4.30;;;;;;;16.13;67.26;100599.58;130078;1267;108755;-70
2022/07/21 02:39:23;;;;;;;5.90;4.60;;;;;;;16.09;67.47;100596.48;130089;1267;108791;-70
2022/07/21 02:42:28;;;;;;;5.70;5.10;;;;;;;16.11;67.59;100596.40;130086;1266;109651;-70
2022/07/21 02:45:34;;;;;;;5.90;4.90;;;;;;;16.13;67.46;100596.96;130084;1267;108837;-72
2022/07/21 02:48:39;;;;;;;6.00;5.20;;;;;;;16.11;67.61;100597.16;130191;1267;109414;-69
2022/07/21 02:51:45;;;;;;;5.70;4.80;;;;;;;16.14;67.57;100599.13;130073;1267;108856;-68
2022/07/21 02:54:50;;;;;;;4.60;4.10;;;;;;;16.16;67.71;100599.04;130072;1267;108683;-69
2022/07/21 02:58:07;;;;;;;5.40;4.40;;;;;;;16.19;67.67;100598.15;130089;1267;108549;-69
2022/07/21 03:01:14;;;;;;;5.10;4.20;;;;;;;16.24;67.73;100600.46;130076;1267;108865;-71
2022/07/21 03:04:19;;;;;;;4.70;4.20;;;;;;;16.31;67.66;100600.33;130264;1267;108821;-73
2022/07/21 03:07:24;;;;;;;5.70;4.70;;;;;;;16.38;67.78;100595.55;130198;1267;109012;-70
2022/07/21 03:10:30;;;;;;;5.10;4.60;;;;;;;16.43;67.60;100598.70;129951;1267;108613;-69
2022/07/21 03:13:35;;;;;;;5.20;4.50;;;;;;;16.47;67.67;100598.77;129978;1267;108768;-69
2022/07/21 03:16:40;;;;;;;6.00;4.90;;;;;;;16.50;67.67;100596.48;130015;1267;109583;-70
2022/07/21 03:19:46;;;;;;;7.50;4.70;;;;;;;16.53;67.74;100599.25;130169;1267;108755;-73
2022/07/21 03:22:51;;;;;;;6.30;4.30;;;;;;;16.55;67.82;100596.31;130265;1266;107699;-71
2022/07/21 03:25:57;;;;;;;5.30;4.30;;;;;;;16.59;67.78;100599.02;130101;1267;109022;-71
2022/07/21 03:29:02;;;;;;;5.30;4.20;;;;;;;16.64;67.90;100601.40;130151;1267;108817;-70
2022/07/21 03:32:08;;;;;;;4.80;4.30;;;;;;;16.73;67.95;100602.14;130165;1267;109621;-70
2022/07/21 03:35:15;;;;;;;5.10;4.60;;;;;;;16.83;67.90;100601.10;130170;1267;109590;-71
2022/07/21 03:38:20;;;;;;;4.90;4.40;;;;;;;16.97;67.89;100593.79;130194;1267;108114;-71
2022/07/21 03:41:25;;;;;;;6.00;4.40;;;;;;;17.07;67.88;100591.27;130114;1267;108840;-70
2022/07/21 03:44:31;;;;;;;5.80;4.60;;;;;;;17.18;67.93;100591.58;130159;1267;109450;-71
2022/07/21 03:47:37;;;;;;;5.60;4.50;;;;;;;17.31;68.01;100593.61;130245;1267;108064;-70
2022/07/21 03:50:43;;;;;;;4.80;4.30;;;;;;;17.43;68.02;100599.98;130279;1267;107082;-71
2022/07/21 03:53:49;;;;;;;4.30;3.80;;;;;;;17.56;67.99;100600.54;130304;1267;108936;-70
2022/07/21 03:56:54;;;;;;;4.40;4.00;;;;;;;17.70;67.93;100600.94;130118;1267;110293;-71
2022/07/21 04:00:00;;;;;;;5.30;4.10;;;;;;;17.90;68.04;100594.48;130099;1267;108756;-71
2022/07/21 04:03:06;;;;;;;5.30;4.70;;;;;;;18.17;67.90;100589.20;130089;1267;108715;-70
2022/07/21 04:06:12;;;;;;;5.80;4.50;;;;;;;18.41;67.81;100592.89;130063;1267;109434;-71
2022/07/21 04:09:18;;;;;;;5.20;4.60;;;;;;;18.65;67.85;100591.44;130223;1267;107548;-72
2022/07/21 04:12:27;;;;;;;5.80;4.20;;;;;;;18.89;67.76;100589.25;130134;1267;108850;-72
2022/07/21 04:15:34;;;;;;;4.80;4.30;;;;;;;19.11;67.55;100589.31;130226;1267;108976;-71
2022/07/21 04:18:39;;;;;;;4.40;4.00;;;;;;;19.35;67.65;100586.17;130180;1267;108602;-70
2022/07/21 04:21:45;;;;;;;7.10;4.30;;;;;;;19.61;67.54;100588.03;130124;1267;108854;-70
2022/07/21 04:24:50;;;;;;;7.40;4.40;;;;;;;19.89;67.34;100586.49;130088;1267;108936;-70
2022/07/21 04:27:57;;;;;;;5.70;4.90;;;;;;;20.14;67.16;100580.92;130141;1267;109068;-70
2022/07/21 04:31:03;;;;;;;5.90;4.50;;;;;;;20.35;67.06;100579.39;130192;1266;108827;-72
2022/07/21 04:34:08;;;;;;;4.80;4.30;;;;;;;20.58;66.97;100575.91;130319;1267;108786;-70
2022/07/21 04:37:14;;;;;;;6.70;4.30;;;;;;;20.81;66.65;100574.42;130123;1267;108809;-72
2022/07/21 04:40:19;;;;;;;6.90;4.00;;;;;;;21.00;66.41;100571.86;130222;1267;108748;-73
2022/07/21 04:43:25;;;;;;;5.40;4.20;;;;;;;21.19;66.26;100569.45;130166;1267;108823;-73
2022/07/21 04:46:30;;;;;;;5.70;3.90;;;;;;;21.35;65.99;100569.12;130403;1267;108689;-70
2022/07/21 04:49:35;;;;;;;5.20;4.20;;;;;;;21.50;65.77;100570.11;130149;1267;109029;-72
2022/07/21 04:52:41;;;;;;;4.60;3.60;;;;;;;21.65;65.68;100578.02;130128;1267;108870;-70
2022/07/21 04:55:46;;;;;;;4.40;3.60;;;;;;;21.77;65.38;100578.10;130111;1266;108893;-72
2022/07/21 04:58:52;;;;;;;4.80;3.80;;;;;;;21.91;65.10;100580.05;130072;1267;109125;-70
2022/07/21 05:01:58;;;;;;;3.80;3.40;;;;;;;22.04;64.80;100578.84;130130;1267;108683;-72
2022/07/21 05:05:04;;;;;;;3.70;3.40;;;;;;;22.16;64.75;100574.85;130137;1267;107219;-71
2022/07/21 05:08:10;;;;;;;6.40;3.70;;;;;;;22.30;64.40;100571.95;130199;1267;108998;-70
2022/07/21 05:11:15;;;;;;;4.10;3.70;;;;;;;22.45;64.16;100572.35;130122;1267;109496;-71
2022/07/21 05:14:20;;;;;;;5.00;3.30;;;;;;;22.55;64.01;100572.19;130211;1266;108760;-71
2022/07/21 05:17:26;;;;;;;4.60;3.30;;;;;;;22.65;63.98;100570.27;130225;1267;108726;-72
2022/07/21 05:20:31;;;;;;;10.40;3.80;;;;;;;22.77;63.73;100574.60;130263;1267;108772;-72
2022/07/21 05:23:37;;;;;;;5.10;3.40;;;;;;;22.88;63.49;100580.58;130250;1267;108724;-71
2022/07/21 05:26:42;;;;;;;3.30;3.00;;;;;;;22.99;63.39;100579.75;130258;1267;108852;-71
2022/07/21 05:29:47;;;;;;;5.00;3.40;;;;;;;23.07;62.96;100582.60;130226;1267;108959;-71
2022/07/21 05:32:53;;;;;;;3.20;2.90;;;;;;;23.14;62.35;100582.78;130232;1267;108925;-74
2022/07/21 05:35:58;;;;;;;3.40;2.80;;;;;;;23.23;62.53;100584.85;130366;1264;107821;-72
2022/07/21 05:39:04;;;;;;;4.60;2.60;;;;;;;23.33;62.29;100581.70;130222;1267;107856;-73
2022/07/21 05:42:09;;;;;;;3.80;2.70;;;;;;;23.43;61.83;100583.27;130271;1267;108553;-70
2022/07/21 05:45:14;;;;;;;5.40;3.00;;;;;;;23.52;61.51;100584.08;130143;1267;108844;-70
2022/07/21 05:48:20;;;;;;;2.70;2.40;;;;;;;23.60;61.09;100582.71;130140;1267;108842;-71
2022/07/21 05:51:25;;;;;;;4.10;2.30;;;;;;;23.64;60.45;100577.90;130370;1267;108637;-71
2022/07/21 05:54:30;;;;;;;3.40;2.00;;;;;;;23.68;60.39;100579.38;130326;1267;108899;-71
2022/07/21 05:57:37;;;;;;;2.50;2.00;;;;;;;23.73;59.56;100580.39;130271;1267;107771;-71
2022/07/21 06:00:42;;;;;;;3.20;2.10;;;;;;;23.74;58.85;100579.53;130093;1266;107228;-72
2022/07/21 06:03:50;;;;;;;4.30;2.00;;;;;;;23.75;58.27;100586.36;130369;1267;108787;-71
2022/07/21 06:06:55;;;;;;;4.30;2.00;;;;;;;23.75;58.21;100587.57;130382;1267;107660;-74
2022/07/21 06:10:01;;;;;;;6.30;2.20;;;;;;;23.78;58.30;100583.68;130234;1267;108604;-70
2022/07/21 06:13:06;;;;;;;2.50;1.80;;;;;;;23.83;58.40;100579.09;130124;1267;108704;-70
2022/07/21 06:16:12;;;;;;;2.00;1.70;;;;;;;23.89;58.01;100576.66;130151;1267;108780;-68
2022/07/21 06:23:46;;;;;;;4.40;1.80;;;;;;;23.95;57.10;100582.48;130080;1267;109266;-69
2022/07/21 06:26:51;;;;;;;2.60;1.80;;;;;;;23.94;56.86;100581.33;130130;1266;108820;-69
2022/07/21 06:29:58;;;;;;;2.00;1.60;;;;;;;23.95;56.47;100577.70;130056;1267;109524;-69
2022/07/21 06:33:04;;;;;;;4.00;1.70;;;;;;;23.96;56.61;100580.41;130109;1267;108892;-70
2022/07/21 06:36:10;;;;;;;2.90;1.70;;;;;;;23.98;55.88;100582.68;130139;1267;108961;-71
2022/07/21 06:39:15;;;;;;;2.00;1.60;;;;;;;24.01;56.15;100587.75;130155;1267;108721;-69
2022/07/21 06:42:21;;;;;;;3.90;1.80;;;;;;;24.04;55.65;100588.39;130124;1267;109369;-69
2022/07/21 06:45:27;;;;;;;1.90;1.70;;;;;;;24.06;55.36;100597.02;130104;1267;109409;-70
2022/07/21 06:48:32;;;;;;;3.50;1.80;;;;;;;24.10;55.41;100599.13;130211;1267;107386;-72
2022/07/21 06:51:38;;;;;;;2.70;2.00;;;;;;;24.16;55.53;100599.77;130261;1267;107366;-71
2022/07/21 06:54:43;;;;;;;1.90;1.50;;;;;;;24.21;55.30;100603.11;130171;1267;107806;-69
2022/07/21 06:57:49;;;;;;;2.90;1.60;;;;;;;24.27;54.99;100603.70;130159;1267;108954;-68
2022/07/21 07:00:54;;;;;;;2.60;1.70;;;;;;;24.34;54.88;100602.04;130145;1267;109175;-71
2022/07/21 07:03:59;;;;;;;2.40;1.70;;;;;;;24.39;54.59;100601.46;130235;1267;108669;-71
2022/07/21 07:07:05;;;;;;;2.50;1.40;;;;;;;24.44;54.06;100600.98;130172;1267;108877;-71
2022/07/21 07:10:12;;;;;;;2.00;1.70;;;;;;;24.48;54.11;100593.00;130236;1267;108833;-70
2022/07/21 07:13:17;;;;;;;3.70;1.60;;;;;;;24.53;53.78;100590.48;130168;1267;108760;-68
2022/07/21 07:16:23;;;;;;;2.60;1.70;;;;;;;24.57;53.77;100584.73;130169;1267;109225;-71
2022/07/21 07:19:29;;;;;;;3.10;1.70;;;;;;;24.65;53.76;100582.29;130179;1266;108468;-71
2022/07/21 07:22:35;;;;;;;2.40;1.80;;;;;;;24.72;53.48;100584.66;130250;1267;108979;-68
2022/07/21 07:25:40;;;;;;;4.00;1.80;;;;;;;24.79;53.32;100588.54;130202;1267;109658;-69
2022/07/21 07:28:46;;;;;;;5.70;1.70;;;;;;;24.86;53.07;100584.06;130174;1267;108658;-69
2022/07/21 07:31:51;;;;;;;1.90;1.70;;;;;;;24.93;53.06;100582.63;130190;1267;108701;-69
2022/07/21 07:34:56;;;;;;;4.30;1.90;;;;;;;24.99;52.89;100583.26;130162;1267;109610;-68
2022/07/21 07:38:01;;;;;;;4.00;1.70;;;;;;;25.05;52.60;100593.98;130154;1267;108698;-71
2022/07/21 07:41:07;;;;;;;3.20;2.00;;;;;;;25.13;52.77;100597.35;130102;1267;108959;-69
2022/07/21 07:44:13;;;;;;;2.80;1.80;;;;;;;25.22;52.94;100598.81;130139;1267;107692;-69
2022/07/21 07:47:18;;;;;;;4.80;1.70;;;;;;;25.31;52.24;100592.95;130161;1267;110561;-68
2022/07/21 07:50:23;;;;;;;2.50;1.90;;;;;;;25.36;52.09;100586.27;130157;1267;109398;-69
2022/07/21 07:53:29;;;;;;;3.00;1.90;;;;;;;25.44;51.94;100584.14;130118;1267;109556;-71
2022/07/21 07:56:34;;;;;;;3.90;1.80;;;;;;;25.48;51.49;100581.85;130103;1267;109341;-70
2022/07/21 07:59:39;;;;;;;4.00;1.70;;;;;;;25.53;51.41;100587.25;130135;1267;108797;-68
2022/07/21 08:02:45;;;;;;;3.40;1.60;;;;;;;25.58;51.49;100590.46;130213;1267;109655;-71
2022/07/21 08:05:51;;;;;;;3.60;1.90;;;;;;;25.65;51.02;100594.41;130186;1267;108942;-70
2022/07/21 08:08:56;;;;;;;5.00;2.00;;;;;;;25.70;50.82;100595.38;130121;1267;108989;-70
2022/07/21 08:12:02;;;;;;;5.10;1.80;;;;;;;25.76;51.00;100595.44;130096;1266;108652;-70
2022/07/21 08:15:09;;;;;;;2.10;1.70;;;;;;;25.85;50.73;100597.61;130143;1267;108129;-70
2022/07/21 08:18:15;;;;;;;2.50;1.60;;;;;;;25.90;50.43;100604.33;130125;1267;109119;-71
2022/07/21 08:21:20;;;;;;;2.10;1.90;;;;;;;25.96;50.19;100603.24;130120;1266;108538;-71
2022/07/21 08:24:26;;;;;;;3.80;1.80;;;;;;;26.01;49.59;100602.40;130156;1267;108642;-70
2022/07/21 08:27:31;;;;;;;3.00;1.90;;;;;;;26.06;49.85;100603.70;130177;1267;108753;-70
2022/07/21 08:30:37;;;;;;;2.30;1.80;;;;;;;26.14;49.55;100603.66;130246;1267;107771;-70
2022/07/21 08:33:42;;;;;;;2.20;1.50;;;;;;;26.19;49.15;100601.50;130104;1267;108652;-70
2022/07/21 08:36:47;;;;;;;2.90;1.90;;;;;;;26.23;48.98;100604.48;130108;1267;108656;-71
2022/07/21 08:39:53;;;;;;;1.70;1.60;;;;;;;26.25;48.73;100600.72;130109;1267;108777;-70
2022/07/21 08:42:58;;;;;;;2.50;1.90;;;;;;;26.33;48.87;100609.74;130240;1266;108745;-70
2022/07/21 08:46:05;;;;;;;2.00;1.60;;;;;;;26.40;48.87;100610.36;130165;1267;108988;-71
2022/07/21 08:49:11;;;;;;;2.80;1.90;;;;;;;26.48;49.08;100610.45;130224;1267;107825;-71
2022/07/21 08:52:18;;;;;;;3.00;1.90;;;;;;;26.57;49.18;100610.48;130188;1267;107334;-71
2022/07/21 08:55:23;;;;;;;3.30;1.80;;;;;;;26.63;48.40;100613.05;130149;1267;110305;-71
2022/07/21 08:58:29;;;;;;;2.00;1.80;;;;;;;26.67;48.20;100607.80;130191;1267;108804;-71
2022/07/21 09:01:36;;;;;;;4.80;2.00;;;;;;;26.72;48.03;100595.00;130200;1267;108681;-71
2022/07/21 09:04:41;;;;;;;2.00;1.80;;;;;;;26.76;47.75;100592.61;130204;1267;108124;-71
2022/07/21 09:07:54;;;;;;;3.30;1.90;;;;;;;26.82;47.50;100591.14;130130;1267;109604;-72
2022/07/21 09:11:12;;;;;;;3.00;1.90;;;;;;;26.86;47.48;100594.55;129823;1267;415306;-71
2022/07/21 09:14:21;;;;;;;2.60;2.00;;;;;;;26.95;47.56;100599.37;130106;1267;108578;-72
2022/07/21 09:17:26;;;;;;;2.00;1.80;;;;;;;27.01;47.66;100590.70;130182;1267;108223;-71
2022/07/21 09:20:32;;;;;;;3.90;2.10;;;;;;;27.05;47.19;100582.15;130208;1266;109835;-71
2022/07/21 09:23:38;;;;;;;3.70;1.90;;;;;;;27.11;47.36;100574.16;130300;1267;108646;-70
2022/07/21 09:27:08;;;;;;;3.00;2.10;;;;;;;27.21;47.20;100576.85;130168;1267;108529;-71
2022/07/21 09:30:13;;;;;;;4.00;2.00;;;;;;;27.25;47.04;100575.23;130229;1267;108967;-71
2022/07/21 09:33:27;;;;;;;2.80;1.80;;;;;;;27.31;46.62;100567.80;130067;1267;109570;-71
2022/07/21 09:36:32;;;;;;;3.30;1.90;;;;;;;27.39;46.79;100568.71;130121;1267;109886;-72
2022/07/21 09:39:46;;;;;;;2.70;2.00;;;;;;;27.44;46.26;100561.69;130140;1267;108663;-71
2022/07/21 09:42:53;;;;;;;3.10;1.70;;;;;;;27.48;46.01;100553.89;130128;1267;108723;-71
2022/07/21 09:46:00;;;;;;;2.50;2.10;;;;;;;27.50;45.63;100558.63;130161;1267;111615;-70
2022/07/21 09:49:06;;;;;;;3.40;2.00;;;;;;;27.54;46.02;100563.05;130126;1267;108850;-70
2022/07/21 09:52:34;;;;;;;2.10;1.90;;;;;;;27.57;45.52;100564.84;130122;1267;108352;-70
2022/07/21 09:55:42;;;;;;;3.50;1.90;;;;;;;27.60;45.26;100559.66;130183;1267;108951;-70
2022/07/21 09:58:48;;;;;;;2.70;1.90;;;;;;;27.62;45.17;100550.08;130110;1266;108513;-71
2022/07/21 10:01:54;;;;;;;3.20;1.90;;;;;;;27.66;44.86;100546.34;130275;1267;109140;-71
2022/07/21 10:05:04;;;;;;;3.10;1.90;;;;;;;27.72;44.87;100540.02;130283;1267;107584;-71
2022/07/21 10:08:09;;;;;;;4.20;2.40;;;;;;;27.78;44.73;100539.65;130246;1267;107492;-71
2022/07/21 10:11:15;;;;;;;3.00;2.10;;;;;;;27.84;44.41;100541.29;130260;1267;108802;-71
2022/07/21 10:14:20;;;;;;;2.70;2.00;;;;;;;27.88;44.25;100538.33;130175;1267;108851;-70
2022/07/21 10:17:26;;;;;;;3.20;1.90;;;;;;;27.94;44.20;100534.77;130124;1267;107162;-71
2022/07/21 10:20:38;;;;;;;2.20;2.00;;;;;;;28.01;44.07;100536.52;130182;1267;111608;-71
2022/07/21 10:23:44;;;;;;;6.90;2.40;;;;;;;28.09;43.67;100542.63;130217;1267;107747;-71
2022/07/21 10:27:08;;;;;;;3.30;2.10;;;;;;;28.11;43.13;100541.09;130239;1267;108731;-71
2022/07/21 10:30:15;;;;;;;2.30;2.00;;;;;;;28.11;43.24;100531.44;130232;1267;108736;-71
2022/07/21 10:33:42;;;;;;;3.60;2.10;;;;;;;28.16;42.92;100529.13;130290;1267;108704;-71
2022/07/21 10:36:48;;;;;;;2.30;1.90;;;;;;;28.23;42.65;100521.48;130231;1267;108834;-71
2022/07/21 10:39:54;;;;;;;3.60;1.80;;;;;;;28.27;43.07;100515.73;130217;1267;109001;-71
2022/07/21 10:43:30;;;;;;;4.70;2.00;;;;;;;28.31;43.04;100508.80;130262;1267;108668;-71
2022/07/21 10:46:40;;;;;;;3.50;1.80;;;;;;;28.38;42.84;100503.46;130319;1267;107417;-71
2022/07/21 10:49:49;;;;;;;2.30;1.70;;;;;;;28.42;42.45;100500.95;130235;1267;107738;-71
2022/07/21 10:53:14;;;;;;;3.50;1.90;;;;;;;28.46;42.35;100500.61;130284;1267;109037;-71
2022/07/21 10:56:31;;;;;;;4.00;2.10;;;;;;;28.48;42.26;100499.13;130284;1267;108773;-71
2022/07/21 11:00:24;;;;;;;2.70;2.10;;;;;;;28.53;42.20;100501.92;130282;1267;108961;-71
2022/07/21 11:03:31;;;;;;;3.20;2.00;;;;;;;28.60;42.27;100504.05;129816;1272;108589;-72
2022/07/21 11:06:37;;;;;;;3.00;1.70;;;;;;;28.64;42.12;100500.71;129678;1273;107523;-71
2022/07/21 11:10:17;;;;;;;3.30;1.90;;;;;;;28.73;42.03;100503.61;130203;1268;108831;-70
2022/07/21 11:13:25;;;;;;;2.10;1.90;;;;;;;28.78;41.54;100500.33;130205;1268;108905;-71
2022/07/21 11:17:08;;;;;;;2.50;1.80;;;;;;;28.81;41.65;100499.56;130255;1268;108714;-72
2022/07/21 11:20:16;;;;;;;3.30;2.10;;;;;;;28.84;41.04;100492.18;130178;1268;108846;-71
2022/07/21 11:23:21;;;;;;;2.30;2.10;;;;;;;28.84;41.14;100492.08;130170;1268;108753;-71
2022/07/21 11:26:27;;;;;;;3.10;2.20;;;;;;;28.91;41.32;100492.20;130217;1267;109368;-70
2022/07/21 11:29:34;;;;;;;3.40;1.90;;;;;;;28.96;41.29;100495.52;130265;1267;108752;-71
2022/07/21 11:32:46;;;;;;;4.60;1.90;;;;;;;28.94;40.90;100495.55;130219;1267;108963;-70
2022/07/21 11:35:51;;;;;;;2.70;1.90;;;;;;;28.91;40.34;100490.45;130341;1267;108782;-71
2022/07/21 11:39:03;;;;;;;3.10;2.10;;;;;;;28.93;40.24;100488.85;130203;1267;108890;-70
2022/07/21 11:42:12;;;;;;;2.80;2.10;;;;;;;28.97;40.39;100486.99;130139;1267;108785;-71
2022/07/21 11:45:17;;;;;;;4.00;1.90;;;;;;;29.07;40.56;100490.48;130194;1267;108504;-69
2022/07/21 11:48:33;;;;;;;3.20;2.00;;;;;;;29.15;40.74;100488.38;130205;1267;108774;-69
2022/07/21 11:51:46;;;;;;;4.00;2.10;;;;;;;29.24;40.31;100488.91;130195;1267;108873;-69
2022/07/21 11:54:53;;;;;;;3.40;2.00;;;;;;;29.31;40.46;100485.08;130176;1267;109280;-70
2022/07/21 11:57:58;;;;;;;3.80;2.10;;;;;;;29.38;40.09;100477.65;130189;1267;109821;-69
2022/07/21 12:01:10;;;;;;;3.20;2.00;;;;;;;29.44;39.83;100470.63;130229;1267;108840;-69
2022/07/21 12:04:26;;;;;;;4.10;2.30;;;;;;;29.52;39.90;100467.16;130126;1267;109632;-70
2022/07/21 12:07:35;;;;;;;4.70;2.10;;;;;;;29.62;39.11;100461.29;130191;1267;108581;-69
2022/07/21 12:10:40;;;;;;;4.30;2.20;;;;;;;29.66;39.33;100462.82;130186;1267;109083;-70
2022/07/21 12:13:56;;;;;;;3.50;1.90;;;;;;;29.71;39.21;100458.27;130166;1266;108653;-69
2022/07/21 12:17:02;;;;;;;2.90;2.10;;;;;;;29.81;39.10;100457.19;130203;1267;108866;-69
2022/07/21 12:20:09;;;;;;;3.10;1.90;;;;;;;29.88;39.06;100457.98;130185;1266;109638;-72
2022/07/21 12:23:23;;;;;;;2.80;1.90;;;;;;;29.90;38.60;100460.14;130218;1267;108954;-69
2022/07/21 12:26:28;;;;;;;3.20;2.00;;;;;;;29.94;38.38;100469.48;130365;1267;108785;-70
2022/07/21 12:29:37;;;;;;;3.30;1.90;;;;;;;29.95;38.08;100474.21;130147;1267;108543;-70
2022/07/21 12:32:46;;;;;;;3.10;2.00;;;;;;;29.96;38.32;100471.09;130140;1267;108777;-70
2022/07/21 12:36:03;;;;;;;3.30;2.20;;;;;;;30.03;38.16;100470.30;130164;1266;108603;-70
2022/07/21 12:42:43;;;;;;;2.90;1.80;;;;;;;30.11;37.90;100467.14;130186;1267;108676;-70
2022/07/21 12:45:54;;;;;;;3.00;2.00;;;;;;;30.13;37.52;100464.61;130146;1267;109564;-72
2022/07/21 12:49:08;;;;;;;3.90;2.00;;;;;;;30.14;37.51;100463.63;130159;1267;109400;-70
2022/07/21 12:52:16;;;;;;;3.50;2.10;;;;;;;30.18;37.75;100462.95;130150;1267;108907;-71
2022/07/21 12:55:21;;;;;;;3.60;2.00;;;;;;;30.20;37.21;100457.27;130206;1267;108752;-70
2022/07/21 12:58:27;;;;;;;4.00;1.90;;;;;;;30.19;37.20;100457.01;130149;1267;108729;-70
2022/07/21 13:01:34;;;;;;;4.00;2.10;;;;;;;30.18;36.91;100453.54;130118;1267;107266;-70
2022/07/21 13:04:41;;;;;;;3.90;1.90;;;;;;;30.18;36.97;100456.39;130209;1267;108948;-70
2022/07/21 13:07:46;;;;;;;2.90;1.80;;;;;;;30.19;36.97;100449.73;130124;1267;109571;-71
2022/07/21 13:10:52;;;;;;;3.80;2.10;;;;;;;30.21;36.74;100443.84;130137;1267;108480;-70
2022/07/21 13:14:01;;;;;;;4.10;2.00;;;;;;;30.24;36.87;100442.91;130201;1267;108238;-69
2022/07/21 13:17:07;;;;;;;5.30;2.10;;;;;;;30.22;36.59;100438.34;130184;1267;108547;-69
2022/07/21 13:20:13;;;;;;;3.30;2.10;;;;;;;30.24;36.70;100439.92;130202;1267;108702;-69
2022/07/21 13:23:20;;;;;;;3.20;2.10;;;;;;;30.24;36.51;100438.10;130199;1267;108501;-70
2022/07/21 13:26:25;;;;;;;4.70;2.10;;;;;;;30.30;36.70;100438.16;130212;1267;109002;-69
2022/07/21 13:29:31;;;;;;;3.70;1.90;;;;;;;30.33;36.44;100438.94;130029;1266;108738;-70
2022/07/21 13:32:36;;;;;;;3.20;1.90;;;;;;;30.35;36.34;100436.16;130321;1267;109554;-70
2022/07/21 13:35:43;;;;;;;4.20;2.10;;;;;;;30.36;35.97;100435.45;130182;1267;108748;-70
2022/07/21 13:38:48;;;;;;;3.30;2.10;;;;;;;30.36;36.00;100421.73;130225;1267;108054;-71
2022/07/21 13:41:54;;;;;;;2.80;2.10;;;;;;;30.41;36.02;100426.08;130212;1267;108664;-70
2022/07/21 13:44:59;;;;;;;3.00;2.00;;;;;;;30.40;35.67;100423.71;130206;1267;109412;-70
2022/07/21 13:48:05;;;;;;;3.30;1.90;;;;;;;30.38;35.67;100427.64;130208;1267;108790;-70
2022/07/21 13:51:11;;;;;;;3.70;1.70;;;;;;;30.38;35.60;100420.52;130090;1267;107135;-70
2022/07/21 13:54:16;;;;;;;2.80;2.00;;;;;;;30.38;35.40;100419.09;130235;1267;108778;-70
2022/07/21 13:57:22;;;;;;;3.40;2.10;;;;;;;30.35;35.33;100416.58;130233;1267;109749;-70
2022/07/21 14:00:28;;;;;;;2.80;2.30;;;;;;;30.34;35.58;100413.93;130338;1267;109397;-70
2022/07/21 14:03:34;;;;;;;6.00;2.10;;;;;;;30.33;35.24;100412.45;130205;1267;108937;-69
2022/07/21 14:06:39;;;;;;;4.10;2.00;;;;;;;30.34;35.15;100406.38;130197;1267;109453;-69
2022/07/21 14:09:45;;;;;;;3.70;2.10;;;;;;;30.34;35.33;100404.46;130046;1270;107424;-69
2022/07/21 14:12:51;;;;;;;4.10;2.20;;;;;;;30.34;35.46;100398.89;129939;1269;107178;-69
2022/07/21 14:15:56;;;;;;;6.20;1.90;;;;;;;30.36;35.36;100398.84;130040;1270;108777;-69
2022/07/21 14:19:02;;;;;;;3.70;1.90;;;;;;;30.37;35.36;100398.44;130018;1270;108755;-69
2022/07/21 14:22:07;;;;;;;4.70;2.00;;;;;;;30.39;35.12;100398.48;130044;1270;109547;-69